createdAt,value
2022-07-29T00:01:07.421Z,100.00
2022-07-29T00:03:37.751Z,100.00
2022-07-29T00:06:08.158Z,100.00
2022-07-29T00:08:36.907Z,100.00
2022-07-29T00:11:05.671Z,100.00
2022-07-29T00:13:34.930Z,100.00
2022-07-29T00:16:04.894Z,100.00
2022-07-29T00:18:34.491Z,100.00
2022-07-29T00:21:03.227Z,100.00
2022-07-29T00:23:36.605Z,100.00
2022-07-29T00:26:03.282Z,100.00
2022-07-29T00:28:32.021Z,100.00
2022-07-29T00:31:01.352Z,100.00
2022-07-29T00:33:30.610Z,100.00
2022-07-29T00:35:59.365Z,100.00
2022-07-29T00:38:28.109Z,100.00
2022-07-29T00:40:56.941Z,100.00
2022-07-29T00:43:26.070Z,100.00
2022-07-29T00:45:54.794Z,100.00
2022-07-29T00:48:23.535Z,100.00
2022-07-29T00:50:52.386Z,100.00
2022-07-29T00:53:21.271Z,100.00
2022-07-29T00:55:50.765Z,100.00
2022-07-29T00:58:21.375Z,100.00
2022-07-29T01:00:50.148Z,100.00
2022-07-29T01:03:18.915Z,100.00
2022-07-29T01:05:51.284Z,100.00
2022-07-29T01:08:20.091Z,100.00
2022-07-29T01:10:48.902Z,100.00
2022-07-29T01:13:18.302Z,100.00
2022-07-29T01:15:49.875Z,100.00
2022-07-29T01:18:22.184Z,100.00
2022-07-29T01:20:57.712Z,100.00
2022-07-29T01:23:37.067Z,100.00
2022-07-29T01:26:14.168Z,100.00
2022-07-29T01:28:50.413Z,100.00
2022-07-29T01:31:25.259Z,100.00
2022-07-29T01:33:55.971Z,100.00
2022-07-29T01:36:25.646Z,100.00
2022-07-29T01:39:01.924Z,100.00
2022-07-29T01:41:32.170Z,100.00
2022-07-29T01:44:18.088Z,100.00
2022-07-29T01:46:48.838Z,100.00
2022-07-29T01:49:19.250Z,100.00
2022-07-29T01:51:52.721Z,100.00
2022-07-29T01:54:29.002Z,100.00
2022-07-29T01:56:58.408Z,100.00
2022-07-29T01:59:28.576Z,100.00
2022-07-29T02:01:58.969Z,100.00
2022-07-29T02:04:30.281Z,100.00
2022-07-29T02:07:00.717Z,100.00
2022-07-29T02:09:30.422Z,100.00
2022-07-29T02:12:00.686Z,100.00
2022-07-29T02:14:30.736Z,100.00
2022-07-29T02:17:01.166Z,100.00
2022-07-29T02:19:32.457Z,100.00
2022-07-29T02:22:02.143Z,100.00
2022-07-29T02:24:32.243Z,100.00
2022-07-29T02:27:02.627Z,100.00
2022-07-29T02:29:37.945Z,100.00
2022-07-29T02:32:07.649Z,100.00
2022-07-29T02:34:48.817Z,100.00
2022-07-29T02:37:18.321Z,100.00
2022-07-29T02:39:48.747Z,100.00
2022-07-29T02:42:22.311Z,100.00
2022-07-29T02:44:51.064Z,100.00
2022-07-29T02:47:28.042Z,100.00
2022-07-29T02:49:58.872Z,100.00
2022-07-29T02:52:30.759Z,100.00
2022-07-29T02:55:01.023Z,100.00
2022-07-29T02:57:31.268Z,100.00
2022-07-29T03:00:04.468Z,100.00
2022-07-29T03:02:34.779Z,100.00
2022-07-29T03:05:05.566Z,100.00
2022-07-29T03:07:35.875Z,100.00
2022-07-29T03:10:05.778Z,100.00
2022-07-29T03:12:37.558Z,100.00
2022-07-29T03:15:06.792Z,100.00
2022-07-29T03:17:35.977Z,100.00
2022-07-29T03:20:05.295Z,100.00
2022-07-29T03:22:35.091Z,100.00
2022-07-29T03:25:05.343Z,100.00
2022-07-29T03:27:36.309Z,100.00
2022-07-29T03:30:08.858Z,100.00
2022-07-29T03:32:38.008Z,100.00
2022-07-29T03:35:07.236Z,100.00
2022-07-29T03:37:37.789Z,100.00
2022-07-29T03:40:08.095Z,100.00
2022-07-29T03:42:38.509Z,100.00
2022-07-29T03:45:11.137Z,100.00
2022-07-29T03:47:50.834Z,100.00
2022-07-29T03:50:14.193Z,100.00
2022-07-29T03:52:43.577Z,100.00
2022-07-29T03:55:16.500Z,100.00
2022-07-29T03:57:47.502Z,100.00
2022-07-29T04:00:17.652Z,100.00
2022-07-29T04:02:50.113Z,100.00
2022-07-29T04:05:19.492Z,100.00
2022-07-29T04:07:48.797Z,100.00
2022-07-29T04:10:26.871Z,100.00
2022-07-29T04:12:51.999Z,100.00
2022-07-29T04:15:20.909Z,100.00
2022-07-29T04:17:49.709Z,100.00
2022-07-29T04:20:19.489Z,100.00
2022-07-29T04:22:48.285Z,100.00
2022-07-29T04:25:17.098Z,100.00
2022-07-29T04:28:04.136Z,100.00
2022-07-29T04:30:33.839Z,100.00
2022-07-29T04:33:06.829Z,100.00
2022-07-29T04:35:38.581Z,100.00
2022-07-29T04:38:07.799Z,100.00
2022-07-29T04:40:38.707Z,100.00
2022-07-29T04:43:07.624Z,100.00
2022-07-29T04:45:37.301Z,100.00
2022-07-29T04:48:06.407Z,100.00
2022-07-29T04:50:35.232Z,100.00
2022-07-29T04:53:04.016Z,100.00
2022-07-29T04:55:33.967Z,100.00
2022-07-29T04:58:02.732Z,100.00
2022-07-29T05:00:33.303Z,100.00
2022-07-29T05:03:01.950Z,100.00
2022-07-29T05:05:30.782Z,100.00
2022-07-29T05:07:59.656Z,100.00
2022-07-29T05:10:29.065Z,100.00
2022-07-29T05:12:57.805Z,100.00
2022-07-29T05:15:26.640Z,100.00
2022-07-29T05:17:55.437Z,100.00
2022-07-29T05:20:26.833Z,100.00
2022-07-29T05:22:57.556Z,100.00
2022-07-29T05:25:43.608Z,100.00
2022-07-29T05:27:57.987Z,100.00
2022-07-29T05:30:26.718Z,100.00
2022-07-29T05:32:55.442Z,100.00
2022-07-29T05:35:24.158Z,100.00
2022-07-29T05:37:53.028Z,100.00
2022-07-29T05:40:21.752Z,100.00
2022-07-29T05:42:50.481Z,100.00
2022-07-29T05:45:19.193Z,100.00
2022-07-29T05:47:48.010Z,100.00
2022-07-29T05:50:16.818Z,100.00
2022-07-29T05:52:45.547Z,100.00
2022-07-29T05:55:14.343Z,100.00
2022-07-29T05:57:44.454Z,100.00
2022-07-29T06:00:13.492Z,100.00
2022-07-29T06:02:42.229Z,100.00
2022-07-29T06:05:16.386Z,100.00
2022-07-29T06:07:50.939Z,100.00
2022-07-29T06:10:12.727Z,100.00
2022-07-29T06:12:41.634Z,100.00
2022-07-29T06:15:10.764Z,100.00
2022-07-29T06:17:39.504Z,100.00
2022-07-29T06:20:10.833Z,100.00
2022-07-29T06:22:39.570Z,100.00
2022-07-29T06:25:09.948Z,100.00
2022-07-29T06:27:39.706Z,100.00
2022-07-29T06:30:09.641Z,100.00
2022-07-29T06:32:42.914Z,100.00
2022-07-29T06:35:39.353Z,100.00
2022-07-29T06:37:40.293Z,100.00
2022-07-29T06:40:27.791Z,100.00
2022-07-29T06:42:56.596Z,100.00
2022-07-29T06:45:31.596Z,100.00
2022-07-29T06:48:00.601Z,98.97
2022-07-29T06:50:45.913Z,97.53
2022-07-29T06:53:14.951Z,99.24
2022-07-29T06:55:43.738Z,96.85
2022-07-29T06:58:12.897Z,99.26
2022-07-29T07:00:41.683Z,93.09
2022-07-29T07:03:10.409Z,93.36
2022-07-29T07:05:40.134Z,93.58
2022-07-29T07:08:09.422Z,95.51
2022-07-29T07:10:38.331Z,86.87
2022-07-29T07:13:07.838Z,89.01
2022-07-29T07:15:39.015Z,86.08
2022-07-29T07:18:09.174Z,87.95
2022-07-29T07:20:37.948Z,87.87
2022-07-29T07:23:07.853Z,88.85
2022-07-29T07:25:36.652Z,86.62
2022-07-29T07:28:07.019Z,86.56
2022-07-29T07:30:35.746Z,87.86
2022-07-29T07:33:04.671Z,86.36
2022-07-29T07:35:33.545Z,86.75
2022-07-29T07:38:02.294Z,90.21
2022-07-29T07:40:31.305Z,85.73
2022-07-29T07:43:00.038Z,87.75
2022-07-29T07:45:29.406Z,87.22
2022-07-29T07:47:58.391Z,85.53
2022-07-29T07:50:27.196Z,89.29
2022-07-29T07:52:58.742Z,85.27
2022-07-29T07:55:27.888Z,87.64
2022-07-29T07:57:56.872Z,85.76
2022-07-29T08:00:25.777Z,85.15
2022-07-29T08:02:54.536Z,87.99
2022-07-29T08:05:23.336Z,89.43
2022-07-29T08:07:52.153Z,83.60
2022-07-29T08:10:39.190Z,84.51
2022-07-29T08:13:09.197Z,81.93
2022-07-29T08:15:37.959Z,82.12
2022-07-29T08:18:08.920Z,80.84
2022-07-29T08:20:38.924Z,82.82
2022-07-29T08:23:09.520Z,77.60
2022-07-29T08:25:40.560Z,83.00
2022-07-29T08:28:09.688Z,79.83
2022-07-29T08:30:38.482Z,82.10
2022-07-29T08:33:07.223Z,84.36
2022-07-29T08:35:36.940Z,81.93
2022-07-29T08:38:05.688Z,82.70
2022-07-29T08:40:34.433Z,83.48
2022-07-29T08:43:07.144Z,80.67
2022-07-29T08:45:47.749Z,80.84
2022-07-29T08:48:17.875Z,85.32
2022-07-29T08:50:47.083Z,81.47
2022-07-29T08:53:17.233Z,78.35
2022-07-29T08:55:47.529Z,79.40
2022-07-29T08:58:16.522Z,80.16
2022-07-29T09:00:47.608Z,76.77
2022-07-29T09:03:19.667Z,74.78
2022-07-29T09:05:49.334Z,74.39
2022-07-29T09:08:19.098Z,74.30
2022-07-29T09:10:48.004Z,75.16
2022-07-29T09:13:16.747Z,75.41
2022-07-29T09:15:45.944Z,73.79
2022-07-29T09:18:20.375Z,74.28
2022-07-29T09:21:06.164Z,72.93
2022-07-29T09:23:34.950Z,75.42
2022-07-29T09:26:05.217Z,73.77
2022-07-29T09:28:33.947Z,75.30
2022-07-29T09:31:03.478Z,72.22
2022-07-29T09:33:39.813Z,73.81
2022-07-29T09:36:09.425Z,72.71
2022-07-29T09:38:39.286Z,73.88
2022-07-29T09:41:09.867Z,69.99
2022-07-29T09:43:38.677Z,69.35
2022-07-29T09:46:13.738Z,69.41
2022-07-29T09:48:42.586Z,70.76
2022-07-29T09:51:24.201Z,69.95
2022-07-29T09:53:51.582Z,66.38
2022-07-29T09:56:22.027Z,64.86
2022-07-29T09:58:52.277Z,67.67
2022-07-29T10:01:22.561Z,65.66
2022-07-29T10:03:54.611Z,63.53
2022-07-29T10:06:23.368Z,62.38
2022-07-29T10:08:52.232Z,65.87
2022-07-29T10:11:21.136Z,66.81
2022-07-29T10:13:50.048Z,62.43
2022-07-29T10:16:19.041Z,64.23
2022-07-29T10:18:48.199Z,62.04
2022-07-29T10:21:35.335Z,61.77
2022-07-29T10:23:47.869Z,59.67
2022-07-29T10:26:17.167Z,62.51
2022-07-29T10:28:45.902Z,61.65
2022-07-29T10:31:16.191Z,65.23
2022-07-29T10:33:55.498Z,62.15
2022-07-29T10:36:30.674Z,60.77
2022-07-29T10:39:22.452Z,57.36
2022-07-29T10:41:55.482Z,61.28
2022-07-29T10:44:26.090Z,57.11
2022-07-29T10:46:55.102Z,58.16
2022-07-29T10:49:26.725Z,62.23
2022-07-29T10:52:02.733Z,61.29
2022-07-29T10:54:37.035Z,59.07
2022-07-29T10:57:21.094Z,60.28
2022-07-29T10:59:53.027Z,58.86
2022-07-29T11:02:41.929Z,61.27
2022-07-29T11:05:09.478Z,60.69
2022-07-29T11:07:45.942Z,64.35
2022-07-29T11:10:16.315Z,62.19
2022-07-29T11:12:47.834Z,64.96
2022-07-29T11:15:21.706Z,60.95
2022-07-29T11:18:02.465Z,61.57
2022-07-29T11:20:39.030Z,61.22
2022-07-29T11:23:33.881Z,59.08
2022-07-29T11:26:19.900Z,60.83
2022-07-29T11:28:59.271Z,61.08
2022-07-29T11:31:42.780Z,59.82
2022-07-29T11:34:20.877Z,63.80
2022-07-29T11:37:07.689Z,61.75
2022-07-29T11:39:37.700Z,60.34
2022-07-29T11:42:32.178Z,61.35
2022-07-29T11:44:58.104Z,60.11
2022-07-29T11:47:28.386Z,63.64
2022-07-29T11:49:59.869Z,62.06
2022-07-29T11:52:49.413Z,64.69
2022-07-29T11:55:09.872Z,62.98
2022-07-29T11:57:39.303Z,62.67
2022-07-29T12:00:12.505Z,61.39
2022-07-29T12:02:48.581Z,60.75
2022-07-29T12:05:16.326Z,62.65
2022-07-29T12:07:47.244Z,62.24
2022-07-29T12:10:19.715Z,61.21
2022-07-29T12:12:48.336Z,61.71
2022-07-29T12:15:25.077Z,60.08
2022-07-29T12:17:55.426Z,61.29
2022-07-29T12:20:28.170Z,60.08
2022-07-29T12:22:58.459Z,58.55
2022-07-29T12:25:32.470Z,60.87
2022-07-29T12:28:03.391Z,58.85
2022-07-29T12:30:41.578Z,60.62
2022-07-29T12:33:14.463Z,59.26
2022-07-29T12:35:47.812Z,56.56
2022-07-29T12:38:15.743Z,58.76
2022-07-29T12:40:45.526Z,54.85
2022-07-29T12:43:19.476Z,55.03
2022-07-29T12:45:54.351Z,56.02
2022-07-29T12:48:36.629Z,55.93
2022-07-29T12:51:07.188Z,57.54
2022-07-29T12:53:36.346Z,56.80
2022-07-29T12:56:20.658Z,55.77
2022-07-29T12:58:40.185Z,56.93
2022-07-29T13:01:16.871Z,57.75
2022-07-29T13:03:57.153Z,59.08
2022-07-29T13:06:31.887Z,59.18
2022-07-29T13:09:16.616Z,59.91
2022-07-29T13:11:52.284Z,59.19
2022-07-29T13:14:34.417Z,58.43
2022-07-29T13:17:05.069Z,58.27
2022-07-29T13:19:35.349Z,59.27
2022-07-29T13:22:04.258Z,59.71
2022-07-29T13:24:32.983Z,59.22
2022-07-29T13:27:01.873Z,60.10
2022-07-29T13:29:32.241Z,59.64
2022-07-29T13:32:01.317Z,59.72
2022-07-29T13:34:32.128Z,59.41
2022-07-29T13:37:00.874Z,59.92
2022-07-29T13:39:29.626Z,60.47
2022-07-29T13:41:58.695Z,59.34
2022-07-29T13:44:29.982Z,60.73
2022-07-29T13:47:00.102Z,61.09
2022-07-29T13:49:28.913Z,59.01
2022-07-29T13:51:57.849Z,60.10
2022-07-29T13:54:26.769Z,59.53
2022-07-29T13:56:56.235Z,59.30
2022-07-29T13:59:25.040Z,59.96
2022-07-29T14:01:53.862Z,59.67
2022-07-29T14:04:24.293Z,60.86
2022-07-29T14:06:53.196Z,58.48
2022-07-29T14:09:22.842Z,58.54
2022-07-29T14:11:52.451Z,59.63
2022-07-29T14:14:21.668Z,60.92
2022-07-29T14:16:52.480Z,59.71
2022-07-29T14:19:21.268Z,62.45
2022-07-29T14:21:50.822Z,58.27
2022-07-29T14:24:21.650Z,60.06
2022-07-29T14:26:51.047Z,58.13
2022-07-29T14:29:19.924Z,59.12
2022-07-29T14:31:48.716Z,58.88
2022-07-29T14:34:17.577Z,60.39
2022-07-29T14:36:46.407Z,59.58
2022-07-29T14:39:16.626Z,60.66
2022-07-29T14:41:46.352Z,61.21
2022-07-29T14:44:16.383Z,61.47
2022-07-29T14:46:45.141Z,61.10
2022-07-29T14:49:16.021Z,63.43
2022-07-29T14:51:44.811Z,66.32
2022-07-29T14:54:13.779Z,63.22
2022-07-29T14:56:46.799Z,62.11
2022-07-29T14:59:14.167Z,62.57
2022-07-29T15:01:43.394Z,62.03
2022-07-29T15:04:12.137Z,67.78
2022-07-29T15:06:40.943Z,62.52
2022-07-29T15:09:09.667Z,62.35
2022-07-29T15:11:38.947Z,63.04
2022-07-29T15:14:07.954Z,63.73
2022-07-29T15:16:43.860Z,63.70
2022-07-29T15:19:11.623Z,63.67
2022-07-29T15:21:41.670Z,62.64
2022-07-29T15:24:10.729Z,63.22
2022-07-29T15:26:39.492Z,65.24
2022-07-29T15:29:09.163Z,61.48
2022-07-29T15:31:38.126Z,60.67
2022-07-29T15:34:06.930Z,60.86
2022-07-29T15:36:51.974Z,62.45
2022-07-29T15:39:06.165Z,62.36
2022-07-29T15:41:35.590Z,65.84
2022-07-29T15:44:05.537Z,62.77
2022-07-29T15:46:52.152Z,61.84
2022-07-29T15:49:20.906Z,62.82
2022-07-29T15:51:51.227Z,64.57
2022-07-29T15:54:20.120Z,61.75
2022-07-29T15:56:48.853Z,66.23
2022-07-29T15:59:22.482Z,64.47
2022-07-29T16:01:47.998Z,63.57
2022-07-29T16:04:17.409Z,64.65
2022-07-29T16:06:47.364Z,61.03
2022-07-29T16:09:17.969Z,65.85
2022-07-29T16:11:51.084Z,63.39
2022-07-29T16:14:19.957Z,61.61
2022-07-29T16:16:49.232Z,64.13
2022-07-29T16:19:17.912Z,61.74
2022-07-29T16:21:47.635Z,62.97
2022-07-29T16:27:18.997Z,65.30
2022-07-29T16:29:49.412Z,66.00
2022-07-29T16:32:22.499Z,63.25
2022-07-29T16:34:49.692Z,67.58
2022-07-29T16:37:18.560Z,65.72
2022-07-29T16:39:47.289Z,66.17
2022-07-29T16:42:30.961Z,65.06
2022-07-29T16:44:46.568Z,64.71
2022-07-29T16:47:17.225Z,65.09
2022-07-29T16:49:47.767Z,65.04
2022-07-29T16:52:17.560Z,62.73
2022-07-29T16:54:46.287Z,63.23
2022-07-29T16:57:15.088Z,68.48
2022-07-29T16:59:44.202Z,66.95
2022-07-29T17:02:13.012Z,66.75
2022-07-29T17:04:41.754Z,65.33
2022-07-29T17:07:11.749Z,64.38
2022-07-29T17:09:41.479Z,65.46
2022-07-29T17:12:10.442Z,65.72
2022-07-29T17:14:39.204Z,66.84
2022-07-29T17:17:13.806Z,67.51
2022-07-29T17:19:39.014Z,69.69
2022-07-29T17:22:15.856Z,71.64
2022-07-29T17:24:38.918Z,73.78
2022-07-29T17:27:09.489Z,74.86
2022-07-29T17:29:38.970Z,75.24
2022-07-29T17:32:09.096Z,72.72
2022-07-29T17:34:38.684Z,71.61
2022-07-29T17:37:08.354Z,74.99
2022-07-29T17:39:37.346Z,74.91
2022-07-29T17:42:06.213Z,76.19
2022-07-29T17:44:36.408Z,77.79
2022-07-29T17:47:06.222Z,77.94
2022-07-29T17:49:36.452Z,79.35
2022-07-29T17:52:06.382Z,80.72
2022-07-29T17:54:35.108Z,80.41
2022-07-29T17:57:03.854Z,81.14
2022-07-29T17:59:32.591Z,80.10
2022-07-29T18:02:01.385Z,80.46
2022-07-29T18:04:31.450Z,80.81
2022-07-29T18:07:00.611Z,84.04
2022-07-29T18:09:29.995Z,82.83
2022-07-29T18:11:59.194Z,82.22
2022-07-29T18:14:28.020Z,82.89
2022-07-29T18:16:58.041Z,83.38
2022-07-29T18:19:26.909Z,83.62
2022-07-29T18:21:58.210Z,86.08
2022-07-29T18:24:29.772Z,88.12
2022-07-29T18:26:58.762Z,88.61
2022-07-29T18:29:29.454Z,89.19
2022-07-29T18:31:59.981Z,87.52
2022-07-29T18:34:29.173Z,85.89
2022-07-29T18:36:59.268Z,89.56
2022-07-29T18:39:28.180Z,89.10
2022-07-29T18:41:56.992Z,89.47
2022-07-29T18:44:43.541Z,91.07
2022-07-29T18:47:07.296Z,93.84
2022-07-29T18:49:38.545Z,95.63
2022-07-29T18:52:07.271Z,95.94
2022-07-29T18:54:36.189Z,96.90
2022-07-29T18:57:54.409Z,97.92
2022-07-29T18:59:35.643Z,96.39
2022-07-29T19:02:05.272Z,97.61
2022-07-29T19:04:34.048Z,98.55
2022-07-29T19:07:03.450Z,100.00
2022-07-29T19:09:32.188Z,100.00
2022-07-29T19:12:03.638Z,100.00
2022-07-29T19:14:31.743Z,100.00
2022-07-29T19:17:00.790Z,100.00
2022-07-29T19:19:29.747Z,100.00
2022-07-29T19:21:58.551Z,100.00
2022-07-29T19:24:27.277Z,100.00
2022-07-29T19:26:57.311Z,100.00
2022-07-29T19:29:26.934Z,100.00
2022-07-29T19:31:55.712Z,100.00
2022-07-29T19:34:24.450Z,100.00
2022-07-29T19:36:53.437Z,100.00
2022-07-29T19:39:31.802Z,100.00
2022-07-29T19:41:56.467Z,100.00
2022-07-29T19:44:24.091Z,100.00
2022-07-29T19:46:53.861Z,100.00
2022-07-29T19:49:22.734Z,100.00
2022-07-29T19:51:53.480Z,100.00
2022-07-29T19:54:21.938Z,100.00
2022-07-29T19:56:50.662Z,100.00
2022-07-29T19:59:20.770Z,100.00
2022-07-29T20:01:50.799Z,100.00
2022-07-29T20:04:19.616Z,100.00
2022-07-29T20:06:49.521Z,100.00
2022-07-29T20:09:20.531Z,100.00
2022-07-29T20:11:48.632Z,100.00
2022-07-29T20:14:17.380Z,100.00
2022-07-29T20:16:46.198Z,100.00
2022-07-29T20:19:15.189Z,100.00
2022-07-29T20:21:43.931Z,100.00
2022-07-29T20:24:12.676Z,100.00
2022-07-29T20:26:42.455Z,100.00
2022-07-29T20:29:11.208Z,100.00
2022-07-29T20:31:40.020Z,100.00
2022-07-29T20:34:08.794Z,100.00
2022-07-29T20:36:37.708Z,100.00
2022-07-29T20:39:07.448Z,100.00
2022-07-29T20:41:36.199Z,100.00
2022-07-29T20:44:05.687Z,100.00
2022-07-29T20:46:34.678Z,100.00
2022-07-29T20:49:04.292Z,100.00
2022-07-29T20:51:33.035Z,100.00
2022-07-29T20:54:03.662Z,100.00
2022-07-29T20:56:33.431Z,100.00
2022-07-29T20:59:02.818Z,100.00
2022-07-29T21:01:31.633Z,100.00
2022-07-29T21:04:01.894Z,100.00
2022-07-29T21:06:31.260Z,100.00
2022-07-29T21:09:01.066Z,100.00
2022-07-29T21:11:44.622Z,100.00
2022-07-29T21:14:01.477Z,100.00
2022-07-29T21:16:32.054Z,100.00
2022-07-29T21:19:02.605Z,100.00
2022-07-29T21:21:31.357Z,100.00
2022-07-29T21:24:01.745Z,100.00
2022-07-29T21:26:30.559Z,100.00
2022-07-29T21:28:59.391Z,100.00
2022-07-29T21:31:28.499Z,100.00
2022-07-29T21:33:57.346Z,100.00
2022-07-29T21:36:47.843Z,100.00
2022-07-29T21:38:56.982Z,100.00
2022-07-29T21:41:25.800Z,100.00
2022-07-29T21:43:55.740Z,100.00
2022-07-29T21:46:25.988Z,100.00
2022-07-29T21:48:54.900Z,100.00
2022-07-29T21:51:23.691Z,100.00
2022-07-29T21:53:53.233Z,100.00
2022-07-29T21:56:22.641Z,100.00
2022-07-29T21:58:52.474Z,100.00
2022-07-29T22:01:21.284Z,100.00
2022-07-29T22:03:50.227Z,100.00
2022-07-29T22:06:19.014Z,100.00
2022-07-29T22:08:48.076Z,100.00
2022-07-29T22:11:16.974Z,100.00
2022-07-29T22:13:49.336Z,100.00
2022-07-29T22:16:18.093Z,100.00
2022-07-29T22:18:48.325Z,100.00
2022-07-29T22:21:17.616Z,100.00
2022-07-29T22:23:46.531Z,100.00
2022-07-29T22:26:15.392Z,100.00
2022-07-29T22:28:44.857Z,100.00
2022-07-29T22:31:14.757Z,100.00
2022-07-29T22:33:43.844Z,100.00
2022-07-29T22:36:12.690Z,100.00
2022-07-29T22:38:41.510Z,100.00
2022-07-29T22:41:11.280Z,100.00
2022-07-29T22:43:41.765Z,100.00
2022-07-29T22:46:11.201Z,100.00
2022-07-29T22:48:41.914Z,100.00
2022-07-29T22:51:10.769Z,100.00
2022-07-29T22:53:40.580Z,100.00
2022-07-29T22:56:09.400Z,100.00
2022-07-29T22:58:39.156Z,100.00
2022-07-29T23:01:07.975Z,100.00
2022-07-29T23:03:36.836Z,100.00
2022-07-29T23:06:06.076Z,100.00
2022-07-29T23:08:35.292Z,100.00
2022-07-29T23:11:05.102Z,100.00
2022-07-29T23:13:33.834Z,100.00
2022-07-29T23:16:02.671Z,100.00
2022-07-29T23:18:32.558Z,100.00
2022-07-29T23:21:01.296Z,100.00
2022-07-29T23:23:32.229Z,100.00
2022-07-29T23:26:00.642Z,100.00
2022-07-29T23:28:29.388Z,100.00
2022-07-29T23:30:58.180Z,100.00
2022-07-29T23:33:27.076Z,100.00
2022-07-29T23:35:55.800Z,100.00
2022-07-29T23:38:24.571Z,100.00
2022-07-29T23:40:53.329Z,100.00
2022-07-29T23:43:22.070Z,100.00
2022-07-29T23:45:50.909Z,100.00
2022-07-29T23:48:21.875Z,100.00
2022-07-29T23:50:50.684Z,100.00
2022-07-29T23:53:19.563Z,100.00
2022-07-29T23:55:48.397Z,100.00
2022-07-29T23:58:17.204Z,100.00
